createdAt,value
2022-12-18T00:00:00.397Z,97
2022-12-18T00:05:00.417Z,97
2022-12-18T00:10:00.405Z,97
2022-12-18T00:15:00.404Z,97
2022-12-18T00:20:00.400Z,97
2022-12-18T00:25:00.398Z,97
2022-12-18T00:30:00.405Z,98
2022-12-18T00:35:00.402Z,98
2022-12-18T00:40:00.428Z,98
2022-12-18T00:45:00.398Z,98
2022-12-18T00:50:00.398Z,98
2022-12-18T00:55:05.819Z,98
2022-12-18T01:00:00.408Z,98
2022-12-18T01:05:00.389Z,98
2022-12-18T01:10:00.409Z,98
2022-12-18T01:15:00.394Z,98
2022-12-18T01:20:00.417Z,98
2022-12-18T01:25:00.392Z,98
2022-12-18T01:30:00.415Z,97
2022-12-18T01:35:00.409Z,97
2022-12-18T01:40:00.438Z,97
2022-12-18T01:45:00.396Z,97
2022-12-18T01:50:00.435Z,97
2022-12-18T01:55:00.405Z,97
2022-12-18T02:00:00.401Z,97
2022-12-18T02:05:00.402Z,97
2022-12-18T02:10:00.395Z,97
2022-12-18T02:15:00.409Z,96
2022-12-18T02:20:00.413Z,97
2022-12-18T02:25:00.403Z,96
2022-12-18T02:30:00.389Z,96
2022-12-18T02:35:00.395Z,97
2022-12-18T02:40:00.406Z,97
2022-12-18T02:45:00.403Z,96
2022-12-18T02:50:00.408Z,96
2022-12-18T02:55:00.404Z,96
2022-12-18T03:00:00.397Z,96
2022-12-18T03:05:00.404Z,97
2022-12-18T03:10:00.404Z,96
2022-12-18T03:15:00.406Z,96
2022-12-18T03:20:00.400Z,96
2022-12-18T03:25:00.408Z,96
2022-12-18T03:30:00.410Z,96
2022-12-18T03:35:00.477Z,96
2022-12-18T03:40:00.411Z,96
2022-12-18T03:45:00.420Z,96
2022-12-18T03:50:00.409Z,96
2022-12-18T03:55:00.405Z,96
2022-12-18T04:00:00.392Z,96
2022-12-18T04:05:00.409Z,96
2022-12-18T04:10:00.410Z,96
2022-12-18T04:15:00.412Z,96
2022-12-18T04:20:00.411Z,96
2022-12-18T04:25:00.429Z,96
2022-12-18T04:30:00.406Z,96
2022-12-18T04:35:00.403Z,96
2022-12-18T04:40:00.403Z,96
2022-12-18T04:45:00.405Z,96
2022-12-18T04:50:00.407Z,96
2022-12-18T04:55:00.407Z,95
2022-12-18T05:00:00.398Z,96
2022-12-18T05:05:00.408Z,95
2022-12-18T05:10:00.400Z,95
2022-12-18T05:15:00.416Z,95
2022-12-18T05:20:00.400Z,95
2022-12-18T05:25:00.399Z,95
2022-12-18T05:30:00.400Z,95
2022-12-18T05:35:00.409Z,95
2022-12-18T05:40:00.399Z,95
2022-12-18T05:45:00.408Z,95
2022-12-18T05:50:00.401Z,95
2022-12-18T05:55:00.397Z,95
2022-12-18T06:00:00.406Z,95
2022-12-18T06:05:00.428Z,95
2022-12-18T06:10:00.414Z,95
2022-12-18T06:15:00.402Z,95
2022-12-18T06:20:00.400Z,95
2022-12-18T06:25:00.403Z,95
2022-12-18T06:30:00.417Z,95
2022-12-18T06:35:00.394Z,95
2022-12-18T06:40:00.397Z,95
2022-12-18T06:45:00.410Z,95
2022-12-18T06:50:00.399Z,95
2022-12-18T06:55:00.411Z,95
2022-12-18T07:00:00.424Z,95
2022-12-18T07:05:00.408Z,95
2022-12-18T07:10:00.397Z,95
2022-12-18T07:15:00.417Z,95
2022-12-18T07:20:00.420Z,95
2022-12-18T07:25:00.425Z,95
2022-12-18T07:30:00.437Z,95
2022-12-18T07:35:00.400Z,95
2022-12-18T07:40:00.404Z,95
2022-12-18T07:45:00.408Z,94
2022-12-18T07:50:00.411Z,94
2022-12-18T07:55:00.402Z,94
2022-12-18T08:00:00.423Z,94
2022-12-18T08:05:00.414Z,94
2022-12-18T08:10:00.400Z,94
2022-12-18T08:15:00.409Z,94
2022-12-18T08:20:00.401Z,94
2022-12-18T08:25:00.411Z,94
2022-12-18T08:30:00.399Z,93
2022-12-18T08:35:00.397Z,92
2022-12-18T08:40:00.409Z,91
2022-12-18T08:45:00.419Z,91
2022-12-18T08:50:00.405Z,90
2022-12-18T08:55:00.402Z,90
2022-12-18T09:00:00.404Z,89
2022-12-18T09:05:00.402Z,89
2022-12-18T09:10:00.407Z,89
2022-12-18T09:15:00.400Z,88
2022-12-18T09:20:00.397Z,89
2022-12-18T09:25:00.401Z,89
2022-12-18T09:30:00.421Z,88
2022-12-18T09:35:00.400Z,88
2022-12-18T09:40:00.412Z,88
2022-12-18T09:45:00.458Z,88
2022-12-18T09:50:00.435Z,88
2022-12-18T09:55:00.405Z,88
2022-12-18T10:00:00.413Z,87
2022-12-18T10:05:00.427Z,87
2022-12-18T10:10:00.406Z,87
2022-12-18T10:15:00.414Z,87
2022-12-18T10:20:00.397Z,87
2022-12-18T10:25:00.409Z,86
2022-12-18T10:30:00.411Z,86
2022-12-18T10:35:01.108Z,86
2022-12-18T10:40:00.411Z,86
2022-12-18T10:45:00.401Z,85
2022-12-18T10:50:00.403Z,85
2022-12-18T10:55:00.412Z,85
2022-12-18T11:00:00.412Z,85
2022-12-18T11:10:00.581Z,84
2022-12-18T11:15:00.585Z,84
2022-12-18T11:20:00.600Z,84
2022-12-18T11:25:32.184Z,82
2022-12-18T11:30:00.575Z,83
2022-12-18T11:35:00.655Z,82
2022-12-18T11:40:00.960Z,81
2022-12-18T11:45:00.605Z,81
2022-12-18T11:50:00.682Z,81
2022-12-18T11:55:00.622Z,81
2022-12-18T12:00:00.567Z,80
2022-12-18T12:05:00.580Z,81
2022-12-18T12:10:00.584Z,81
2022-12-18T12:15:00.600Z,81
2022-12-18T12:20:00.633Z,80
2022-12-18T12:25:00.590Z,81
2022-12-18T12:30:00.623Z,80
2022-12-18T12:40:00.381Z,80
2022-12-18T12:45:00.359Z,80
2022-12-18T12:50:00.358Z,80
2022-12-18T12:55:00.398Z,79
2022-12-18T13:00:00.368Z,79
2022-12-18T13:05:00.356Z,79
2022-12-18T13:10:00.364Z,79
2022-12-18T13:15:00.355Z,80
2022-12-18T13:20:00.339Z,80
2022-12-18T13:25:00.348Z,80
2022-12-18T13:30:00.348Z,80
2022-12-18T13:35:00.359Z,80
2022-12-18T13:40:00.354Z,79
2022-12-18T13:45:00.350Z,79
2022-12-18T13:50:00.357Z,79
2022-12-18T13:55:00.352Z,80
2022-12-18T14:00:00.367Z,80
2022-12-18T14:05:00.362Z,80
2022-12-18T14:10:26.058Z,79
2022-12-18T14:15:00.355Z,80
2022-12-18T14:20:00.347Z,80
2022-12-18T14:25:00.351Z,80
2022-12-18T14:30:00.354Z,80
2022-12-18T14:35:00.341Z,80
2022-12-18T14:40:03.162Z,80
2022-12-18T14:45:13.402Z,80
2022-12-18T14:50:00.350Z,80
2022-12-18T14:55:00.369Z,80
2022-12-18T15:00:00.352Z,80
2022-12-18T15:05:00.351Z,80
2022-12-18T15:10:00.349Z,80
2022-12-18T15:15:00.360Z,80
2022-12-18T15:20:00.353Z,80
2022-12-18T15:25:00.350Z,79
2022-12-18T15:30:00.350Z,80
2022-12-18T15:35:00.354Z,80
2022-12-18T15:40:00.350Z,80
2022-12-18T15:45:00.352Z,80
2022-12-18T15:50:00.342Z,80
2022-12-18T15:55:00.372Z,80
2022-12-18T16:00:00.356Z,80
2022-12-18T16:05:00.360Z,80
2022-12-18T16:10:02.234Z,81
2022-12-18T16:15:00.351Z,81
2022-12-18T16:20:00.450Z,81
2022-12-18T16:25:00.338Z,81
2022-12-18T16:30:00.470Z,81
2022-12-18T16:35:00.348Z,81
2022-12-18T16:40:00.357Z,80
2022-12-18T16:45:00.350Z,80
2022-12-18T16:50:00.349Z,80
2022-12-18T16:55:00.339Z,80
2022-12-18T17:00:05.252Z,79
2022-12-18T17:05:00.358Z,78
2022-12-18T17:10:00.365Z,77
2022-12-18T17:15:00.351Z,77
2022-12-18T17:20:00.350Z,76
2022-12-18T17:25:00.355Z,75
2022-12-18T17:30:00.345Z,74
2022-12-18T17:35:05.459Z,74
2022-12-18T17:40:00.352Z,74
2022-12-18T17:45:00.351Z,74
2022-12-18T17:50:00.347Z,75
2022-12-18T17:55:00.358Z,75
2022-12-18T18:00:00.349Z,75
2022-12-18T18:05:00.349Z,75
2022-12-18T18:10:00.356Z,75
2022-12-18T18:15:00.347Z,75
2022-12-18T18:20:00.386Z,76
2022-12-18T18:25:00.350Z,76
2022-12-18T18:30:00.354Z,76
2022-12-18T18:35:00.344Z,77
2022-12-18T18:40:00.370Z,77
2022-12-18T18:45:00.348Z,76
2022-12-18T18:50:00.349Z,77
2022-12-18T18:55:12.804Z,77
2022-12-18T19:00:00.363Z,77
2022-12-18T19:05:00.352Z,77
2022-12-18T19:10:03.911Z,77
2022-12-18T19:15:00.352Z,77
2022-12-18T19:20:00.355Z,78
2022-12-18T19:25:00.350Z,78
2022-12-18T19:30:00.353Z,78
2022-12-18T19:35:00.349Z,78
2022-12-18T19:40:00.713Z,78
2022-12-18T19:45:00.348Z,78
2022-12-18T19:50:00.383Z,78
2022-12-18T19:55:00.350Z,78
2022-12-18T20:00:00.447Z,78
2022-12-18T20:05:00.345Z,78
2022-12-18T20:10:05.399Z,78
2022-12-18T20:15:00.351Z,78
2022-12-18T20:20:00.351Z,78
2022-12-18T20:25:00.343Z,78
2022-12-18T20:30:00.351Z,78
2022-12-18T20:35:00.352Z,78
2022-12-18T20:40:00.349Z,79
2022-12-18T20:45:00.347Z,80
2022-12-18T20:50:00.352Z,82
2022-12-18T20:55:00.358Z,82
2022-12-18T21:00:00.412Z,83
2022-12-18T21:05:00.370Z,84
2022-12-18T21:10:00.361Z,84
2022-12-18T21:15:00.357Z,86
2022-12-18T21:20:00.404Z,86
2022-12-18T21:25:00.341Z,87
2022-12-18T21:30:00.354Z,87
2022-12-18T21:35:00.370Z,87
2022-12-18T21:40:00.385Z,88
2022-12-18T21:45:00.357Z,88
2022-12-18T21:50:00.362Z,89
2022-12-18T21:55:06.232Z,89
2022-12-18T22:00:00.348Z,90
2022-12-18T22:05:00.355Z,90
2022-12-18T22:10:00.368Z,90
2022-12-18T22:15:00.350Z,90
2022-12-18T22:20:00.355Z,91
2022-12-18T22:25:00.345Z,91
2022-12-18T22:30:00.355Z,92
2022-12-18T22:35:05.203Z,92
2022-12-18T22:40:03.335Z,92
2022-12-18T22:45:00.584Z,92
2022-12-18T22:50:00.360Z,92
2022-12-18T22:55:00.348Z,92
2022-12-18T23:00:00.362Z,92
2022-12-18T23:05:00.345Z,92
2022-12-18T23:10:01.097Z,92
2022-12-18T23:15:00.352Z,93
2022-12-18T23:20:00.348Z,93
2022-12-18T23:25:00.357Z,93
2022-12-18T23:30:00.344Z,92
2022-12-18T23:35:00.359Z,92
2022-12-18T23:40:00.348Z,92
2022-12-18T23:45:00.365Z,92
2022-12-18T23:50:00.368Z,92
2022-12-18T23:55:00.347Z,92
